Terminal Aerodrome Forecast
Issued by NWS

Home | Current Version | Previous Version | Text Only | Print | Product List | Glossary On
Versions: 1 2 3 4 5 6 7 8 9 10 11 12 13 14 15 16 17 18 19 20 21 22 23 24 25 26 27 28 29 30 31 32
000
FTUS46 KSEW 011400 AAB
TAFSEA
TAF AMD
KSEA 011459Z 0115/0218 14006KT 5SM BR SCT002 OVC090
     FM011800 16008KT 5SM -RA BR SCT010 OVC050
     FM012100 20008KT 5SM -RA BR OVC020
     FM020000 20008KT P6SM BKN020 OVC040
     FM021000 18006KT P6SM OVC015=

USA.gov is the U.S. government's official web portal to all federal, state and local government web resources and services.